Time;durP1;ratioP1;P1;durP2;ratioP2;P2;SDS_P1;SDS_P2;PMS_P1;PMS_P2;Temp;Humidity;BMP_temperature;BMP_pressure;BME280_temperature;BME280_humidity;BME280_pressure;Samples;Min_cycle;Max_cycle;Signal;HPM_P1;HPM_P2
2022/02/07 00:02:11;;;;;;;23.90;2.90;;;;;;;;;;5102346;28;20060;-63
2022/02/07 00:04:39;;;;;;;30.25;6.13;;;;;;;;;;5085583;28;20445;-61
2022/02/07 00:07:05;;;;;;;15.55;2.60;;;;;;;;;;5081275;28;20048;-62
2022/02/07 00:09:34;;;;;;;10.40;2.00;;;;;;;;;;5085060;28;20044;-62
2022/02/07 00:12:00;;;;;;;12.98;1.63;;;;;;;;;;5095662;28;20037;-63
2022/02/07 00:14:26;;;;;;;6.53;1.20;;;;;;;;;;5086578;28;20207;-63
2022/02/07 00:16:52;;;;;;;10.75;1.80;;;;;;;;;;5086551;28;20062;-62
2022/02/07 00:19:23;;;;;;;13.88;1.98;;;;;;;;;;5085716;28;20131;-63
2022/02/07 00:21:50;;;;;;;19.13;2.58;;;;;;;;;;5084602;28;20048;-63
2022/02/07 00:24:16;;;;;;;14.45;2.60;;;;;;;;;;5085426;28;20041;-63
2022/02/07 00:26:42;;;;;;;22.38;2.85;;;;;;;;;;5093940;28;20089;-63
2022/02/07 00:29:09;;;;;;;13.20;2.78;;;;;;;;;;5105033;28;20108;-63
2022/02/07 00:31:35;;;;;;;21.23;3.17;;;;;;;;;;5106720;28;20085;-63
2022/02/07 00:34:01;;;;;;;23.85;3.20;;;;;;;;;;5107158;28;20072;-63
2022/02/07 00:36:27;;;;;;;19.77;3.05;;;;;;;;;;5105730;28;20084;-63
2022/02/07 00:38:59;;;;;;;10.05;2.90;;;;;;;;;;5095400;28;20479;-63
2022/02/07 00:41:40;;;;;;;17.77;2.97;;;;;;;;;;5086123;28;20526;-63
2022/02/07 00:44:13;;;;;;;18.42;2.92;;;;;;;;;;5086029;28;20046;-63
2022/02/07 00:46:47;;;;;;;14.15;3.60;;;;;;;;;;5085970;28;20048;-63
2022/02/07 00:49:13;;;;;;;17.30;2.53;;;;;;;;;;5086276;28;20123;-63
2022/02/07 00:51:39;;;;;;;16.10;3.13;;;;;;;;;;5094463;28;20044;-63
2022/02/07 00:54:05;;;;;;;12.23;3.13;;;;;;;;;;5086089;28;20112;-63
2022/02/07 00:56:31;;;;;;;12.93;2.92;;;;;;;;;;5084599;28;20136;-62
2022/02/07 00:58:57;;;;;;;19.02;2.75;;;;;;;;;;5085662;28;20075;-62
2022/02/07 01:01:27;;;;;;;19.08;3.22;;;;;;;;;;5084460;28;21023;-62
2022/02/07 01:03:53;;;;;;;17.17;2.33;;;;;;;;;;5089863;28;20043;-62
2022/02/07 01:06:20;;;;;;;17.48;3.00;;;;;;;;;;5105448;28;20126;-62
2022/02/07 01:08:51;;;;;;;18.02;2.60;;;;;;;;;;5104803;28;20089;-62
2022/02/07 01:11:32;;;;;;;17.40;2.80;;;;;;;;;;5104752;28;20079;-62
2022/02/07 01:14:15;;;;;;;18.90;2.30;;;;;;;;;;5105655;28;20079;-62
2022/02/07 01:20:11;;;;;;;15.65;2.15;;;;;;;;;;5076794;28;20104;-62
2022/02/07 01:47:36;;;;;;;24.60;4.07;;;;;;;;;;5100650;28;20060;-62
2022/02/07 01:55:14;;;;;;;12.65;3.38;;;;;;;;;;5064981;28;20512;-61
2022/02/07 01:57:44;;;;;;;13.23;2.53;;;;;;;;;;5063915;28;20072;-62
2022/02/07 02:00:11;;;;;;;19.08;3.42;;;;;;;;;;5067360;28;20045;-62
2022/02/07 02:02:37;;;;;;;22.65;3.92;;;;;;;;;;5085066;28;20119;-62
2022/02/07 02:05:04;;;;;;;29.45;3.78;;;;;;;;;;5084505;28;20100;-62
2022/02/07 02:07:30;;;;;;;21.08;2.97;;;;;;;;;;5084293;28;20056;-62
2022/02/07 02:09:56;;;;;;;4.28;1.52;;;;;;;;;;5084668;28;20041;-62
2022/02/07 02:12:26;;;;;;;10.48;1.90;;;;;;;;;;5103077;28;20113;-61
2022/02/07 02:18:26;;;;;;;10.15;2.33;;;;;;;;;;5104911;28;20419;-63
2022/02/07 02:21:06;;;;;;;17.67;3.20;;;;;;;;;;5101480;28;20083;-62
2022/02/07 02:46:51;;;;;;;19.75;2.78;;;;;;;;;;5103349;28;20056;-63
2022/02/07 02:49:17;;;;;;;19.73;3.45;;;;;;;;;;5087038;28;20045;-62
2022/02/07 02:51:43;;;;;;;12.80;2.85;;;;;;;;;;5082177;28;20048;-62
2022/02/07 02:54:09;;;;;;;13.30;3.15;;;;;;;;;;5084096;28;20052;-62
2022/02/07 02:56:36;;;;;;;23.35;4.07;;;;;;;;;;5083873;28;20055;-63
2022/02/07 02:59:03;;;;;;;17.98;3.63;;;;;;;;;;5085149;28;20044;-62
2022/02/07 03:01:29;;;;;;;22.80;4.10;;;;;;;;;;5099693;28;20108;-62
2022/02/07 03:03:55;;;;;;;23.00;3.78;;;;;;;;;;5084106;28;20381;-62
2022/02/07 03:06:21;;;;;;;31.17;4.55;;;;;;;;;;5083468;28;20043;-62
2022/02/07 03:08:48;;;;;;;39.75;5.72;;;;;;;;;;5095907;28;20056;-62
2022/02/07 03:11:18;;;;;;;28.27;4.18;;;;;;;;;;5108211;28;20040;-62
2022/02/07 03:13:59;;;;;;;21.98;4.40;;;;;;;;;;5108528;28;20044;-62
2022/02/07 03:16:40;;;;;;;27.70;3.92;;;;;;;;;;5108417;28;20135;-62
2022/02/07 03:19:08;;;;;;;25.83;3.72;;;;;;;;;;5093273;28;20055;-62
2022/02/07 03:21:34;;;;;;;28.77;4.18;;;;;;;;;;5087119;28;20076;-62
2022/02/07 03:24:01;;;;;;;23.08;4.25;;;;;;;;;;5086688;28;20049;-62
2022/02/07 03:26:28;;;;;;;28.63;4.50;;;;;;;;;;5087798;28;20053;-62
2022/02/07 03:28:54;;;;;;;23.73;2.97;;;;;;;;;;5098632;28;20393;-62
2022/02/07 03:31:21;;;;;;;25.15;3.60;;;;;;;;;;5108138;28;20054;-62
2022/02/07 03:33:47;;;;;;;20.75;2.85;;;;;;;;;;5106884;28;20415;-62
2022/02/07 03:36:14;;;;;;;21.45;3.72;;;;;;;;;;5105716;28;20060;-62
2022/02/07 03:38:40;;;;;;;21.67;3.35;;;;;;;;;;5098222;28;20052;-62
2022/02/07 03:41:08;;;;;;;22.27;2.95;;;;;;;;;;5087302;28;20108;-62
2022/02/07 03:43:34;;;;;;;22.05;4.20;;;;;;;;;;5087579;28;20049;-63
2022/02/07 03:46:02;;;;;;;21.08;4.63;;;;;;;;;;5108127;28;20048;-62
2022/02/07 03:48:28;;;;;;;24.88;3.28;;;;;;;;;;5107755;28;20054;-62
2022/02/07 03:50:54;;;;;;;25.33;3.80;;;;;;;;;;5106854;28;20103;-62
2022/02/07 03:53:20;;;;;;;19.17;3.80;;;;;;;;;;5107830;28;20119;-62
2022/02/07 03:55:47;;;;;;;25.95;3.15;;;;;;;;;;5088950;28;20576;-62
2022/02/07 03:58:14;;;;;;;26.48;4.68;;;;;;;;;;5087234;28;20064;-62
2022/02/07 04:00:40;;;;;;;29.13;4.38;;;;;;;;;;5087341;28;20121;-62
2022/02/07 04:03:09;;;;;;;27.38;3.97;;;;;;;;;;5102518;28;20048;-61
2022/02/07 04:05:46;;;;;;;25.25;3.67;;;;;;;;;;5085713;28;20060;-61
2022/02/07 04:08:14;;;;;;;32.65;4.18;;;;;;;;;;5067027;28;20472;-62
2022/02/07 04:11:45;;;;;;;36.45;5.10;;;;;;;;;;5088197;28;20056;-61
2022/02/07 04:13:37;;;;;;;24.55;4.20;;;;;;;;;;5096557;28;20048;-61
2022/02/07 04:16:04;;;;;;;27.13;3.92;;;;;;;;;;5105573;28;20423;-63
2022/02/07 04:18:52;;;;;;;31.30;5.40;;;;;;;;;;5107514;28;20070;-63
2022/02/07 04:21:18;;;;;;;28.00;4.18;;;;;;;;;;5099864;28;21368;-62
2022/02/07 04:23:44;;;;;;;25.60;4.13;;;;;;;;;;5086769;28;20093;-62
2022/02/07 04:26:10;;;;;;;28.63;4.07;;;;;;;;;;5102378;28;20061;-61
2022/02/07 04:28:36;;;;;;;22.58;3.10;;;;;;;;;;5086447;28;20051;-61
2022/02/07 04:31:02;;;;;;;14.75;3.17;;;;;;;;;;5088493;28;20127;-61
2022/02/07 04:33:28;;;;;;;17.30;2.95;;;;;;;;;;5107126;28;20119;-62
2022/02/07 04:35:55;;;;;;;17.13;3.30;;;;;;;;;;5104936;28;20056;-62
2022/02/07 04:38:21;;;;;;;29.23;4.88;;;;;;;;;;5106627;28;20094;-62
2022/02/07 04:40:47;;;;;;;25.98;4.60;;;;;;;;;;5104260;28;20058;-61
2022/02/07 04:43:15;;;;;;;33.50;5.07;;;;;;;;;;5086073;28;20051;-63
2022/02/07 04:45:53;;;;;;;28.30;4.15;;;;;;;;;;5085025;28;20131;-63
2022/02/07 04:51:15;;;;;;;33.88;5.18;;;;;;;;;;5086881;28;20074;-63
2022/02/07 05:01:30;;;;;;;32.00;4.50;;;;;;;;;;5095231;28;20059;-63
2022/02/07 05:04:03;;;;;;;32.17;5.28;;;;;;;;;;5066034;28;20091;-63
2022/02/07 05:14:48;;;;;;;24.77;4.25;;;;;;;;;;5106247;28;20059;-63
2022/02/07 05:17:16;;;;;;;24.58;3.97;;;;;;;;;;5105847;28;20101;-61
2022/02/07 05:19:42;;;;;;;27.73;4.28;;;;;;;;;;5105717;28;20046;-62
2022/02/07 05:22:08;;;;;;;30.83;4.15;;;;;;;;;;5090832;28;20048;-61
2022/02/07 05:24:35;;;;;;;22.67;4.10;;;;;;;;;;5084353;28;20067;-63
2022/02/07 05:27:01;;;;;;;31.00;4.20;;;;;;;;;;5084901;28;20128;-62
2022/02/07 05:29:27;;;;;;;26.45;3.25;;;;;;;;;;5085619;28;20049;-62
2022/02/07 05:31:53;;;;;;;25.38;3.25;;;;;;;;;;5094416;28;20060;-63
2022/02/07 05:34:19;;;;;;;19.42;3.25;;;;;;;;;;5085417;28;20087;-62
2022/02/07 05:36:47;;;;;;;22.08;4.93;;;;;;;;;;5084246;28;20055;-62
2022/02/07 05:39:17;;;;;;;19.58;4.22;;;;;;;;;;5085270;28;20134;-62
2022/02/07 05:41:45;;;;;;;35.28;5.15;;;;;;;;;;5093639;28;20048;-62
2022/02/07 05:44:15;;;;;;;26.77;4.55;;;;;;;;;;5104189;28;20048;-62
2022/02/07 05:46:41;;;;;;;31.17;4.38;;;;;;;;;;5105225;28;20082;-62
2022/02/07 05:49:07;;;;;;;23.55;4.70;;;;;;;;;;5096692;28;20087;-62
2022/02/07 05:51:33;;;;;;;22.23;3.83;;;;;;;;;;5085106;28;20040;-63
2022/02/07 05:54:00;;;;;;;23.60;4.25;;;;;;;;;;5095462;28;20048;-63
2022/02/07 05:56:26;;;;;;;22.33;4.25;;;;;;;;;;5105107;28;20099;-63
2022/02/07 05:58:52;;;;;;;29.77;3.92;;;;;;;;;;5104177;28;20036;-63
2022/02/07 06:01:18;;;;;;;28.75;4.40;;;;;;;;;;5099499;28;20079;-63
2022/02/07 06:03:44;;;;;;;23.67;3.95;;;;;;;;;;5104899;28;20048;-63
2022/02/07 06:06:10;;;;;;;24.58;5.95;;;;;;;;;;5104476;28;20593;-63
2022/02/07 06:08:36;;;;;;;33.05;4.63;;;;;;;;;;5105064;28;20048;-63
2022/02/07 06:11:05;;;;;;;32.13;4.97;;;;;;;;;;5100529;28;20542;-63
2022/02/07 06:13:31;;;;;;;26.33;4.93;;;;;;;;;;5081653;28;20122;-62
2022/02/07 06:15:57;;;;;;;38.95;5.35;;;;;;;;;;5104442;28;20107;-62
2022/02/07 06:18:24;;;;;;;34.85;4.55;;;;;;;;;;5103710;28;20044;-62
2022/02/07 06:20:55;;;;;;;31.75;5.97;;;;;;;;;;5101483;28;20052;-62
2022/02/07 06:23:21;;;;;;;40.20;6.15;;;;;;;;;;5083364;28;20135;-63
2022/02/07 06:25:47;;;;;;;29.80;4.85;;;;;;;;;;5083462;28;20131;-62
2022/02/07 06:28:14;;;;;;;36.70;5.95;;;;;;;;;;5083110;28;20041;-63
2022/02/07 06:30:40;;;;;;;37.70;6.47;;;;;;;;;;5082292;28;20044;-63
2022/02/07 06:33:07;;;;;;;37.13;5.53;;;;;;;;;;5064471;28;20045;-63
2022/02/07 06:35:33;;;;;;;30.40;5.63;;;;;;;;;;5097035;28;20052;-63
2022/02/07 06:37:59;;;;;;;31.00;5.50;;;;;;;;;;5079564;28;20044;-63
2022/02/07 06:40:25;;;;;;;42.13;5.60;;;;;;;;;;5088278;28;20033;-63
2022/02/07 06:42:53;;;;;;;34.05;7.38;;;;;;;;;;5086779;28;20055;-63
2022/02/07 06:45:19;;;;;;;34.13;5.88;;;;;;;;;;5077206;28;20072;-63
2022/02/07 06:47:45;;;;;;;37.30;6.85;;;;;;;;;;5104444;28;20050;-63
2022/02/07 06:50:11;;;;;;;30.13;4.78;;;;;;;;;;5095474;28;20103;-63
2022/02/07 06:52:37;;;;;;;36.25;6.50;;;;;;;;;;5102612;28;20058;-63
2022/02/07 06:55:04;;;;;;;36.72;5.07;;;;;;;;;;5103075;28;20074;-62
2022/02/07 06:57:30;;;;;;;27.30;6.13;;;;;;;;;;5103302;28;20058;-62
2022/02/07 06:59:56;;;;;;;37.10;6.70;;;;;;;;;;5089900;28;20040;-63
2022/02/07 07:02:27;;;;;;;44.28;7.47;;;;;;;;;;5102293;28;20052;-63
2022/02/07 07:04:56;;;;;;;35.55;5.80;;;;;;;;;;5098910;28;20127;-63
2022/02/07 07:07:22;;;;;;;39.08;6.85;;;;;;;;;;5103002;28;20050;-63
2022/02/07 07:09:49;;;;;;;39.50;6.72;;;;;;;;;;5097827;28;20036;-64
2022/02/07 07:12:16;;;;;;;37.63;6.65;;;;;;;;;;5102634;28;20044;-63
2022/02/07 07:14:56;;;;;;;29.27;5.93;;;;;;;;;;5099129;28;20078;-63
2022/02/07 07:17:22;;;;;;;31.35;6.45;;;;;;;;;;5094889;28;20056;-63
2022/02/07 07:19:49;;;;;;;33.28;6.85;;;;;;;;;;5088189;28;20072;-62
2022/02/07 07:22:15;;;;;;;35.40;5.57;;;;;;;;;;5083138;28;20051;-62
2022/02/07 07:24:43;;;;;;;38.13;5.28;;;;;;;;;;5084096;28;20072;-62
2022/02/07 07:27:09;;;;;;;;;;;;;;;;;;5082801;28;20102;-62
2022/02/07 07:29:39;;;;;;;51.13;6.97;;;;;;;;;;5085399;28;19920;-62
2022/02/07 07:32:07;;;;;;;35.33;7.90;;;;;;;;;;5083713;28;20078;-62
2022/02/07 07:34:33;;;;;;;39.15;7.93;;;;;;;;;;5083674;28;20064;-63
2022/02/07 07:36:59;;;;;;;38.75;8.40;;;;;;;;;;5081530;28;20060;-63
2022/02/07 07:39:25;;;;;;;49.85;5.68;;;;;;;;;;5093987;28;20071;-65
2022/02/07 07:41:52;;;;;;;35.47;5.05;;;;;;;;;;5102716;28;20077;-63
2022/02/07 07:44:22;;;;;;;32.35;5.93;;;;;;;;;;5103786;28;20058;-60
2022/02/07 07:46:54;;;;;;;39.35;7.05;;;;;;;;;;5077650;28;20053;-62
2022/02/07 07:49:30;;;;;;;54.13;6.20;;;;;;;;;;5095470;28;20109;-62
2022/02/07 07:52:03;;;;;;;39.45;5.95;;;;;;;;;;5089889;28;20040;-62
2022/02/07 08:02:46;;;;;;;39.15;6.53;;;;;;;;;;5086607;28;20064;-63
2022/02/07 08:06:07;;;;;;;25.88;4.65;;;;;;;;;;5067104;28;20276;-63
2022/02/07 08:08:10;;;;;;;36.45;5.53;;;;;;;;;;5083538;28;20055;-63
2022/02/07 08:11:01;;;;;;;38.63;6.22;;;;;;;;;;5079264;28;20056;-63
2022/02/07 08:13:30;;;;;;;38.35;5.72;;;;;;;;;;5113676;27;20052;-63
2022/02/07 08:15:56;;;;;;;32.95;5.68;;;;;;;;;;5080954;28;20048;-63
2022/02/07 08:18:22;;;;;;;34.50;5.68;;;;;;;;;;5085309;28;20048;-63
2022/02/07 08:20:48;;;;;;;34.03;6.03;;;;;;;;;;5085797;28;20040;-65
2022/02/07 08:23:15;;;;;;;37.42;6.72;;;;;;;;;;5077065;28;20049;-63
2022/02/07 08:25:41;;;;;;;41.70;6.50;;;;;;;;;;5081132;28;20511;-63
2022/02/07 08:28:07;;;;;;;50.13;7.47;;;;;;;;;;5083563;28;20040;-63
2022/02/07 08:30:34;;;;;;;34.83;6.20;;;;;;;;;;5095669;28;20044;-63
2022/02/07 08:33:01;;;;;;;39.30;7.43;;;;;;;;;;5077126;28;20085;-62
2022/02/07 08:35:27;;;;;;;32.20;7.05;;;;;;;;;;5075786;28;20047;-62
2022/02/07 08:37:53;;;;;;;30.48;6.88;;;;;;;;;;5070239;28;20102;-62
2022/02/07 08:40:20;;;;;;;46.67;5.28;;;;;;;;;;5082642;28;20071;-62
2022/02/07 08:42:46;;;;;;;35.92;5.47;;;;;;;;;;5082872;28;20044;-62
2022/02/07 08:45:14;;;;;;;33.03;5.93;;;;;;;;;;5081926;28;20044;-63
2022/02/07 08:47:41;;;;;;;45.88;6.13;;;;;;;;;;5073953;28;20045;-62
2022/02/07 08:50:08;;;;;;;37.53;6.95;;;;;;;;;;5079052;28;20063;-63
2022/02/07 08:52:34;;;;;;;43.40;6.20;;;;;;;;;;5090725;28;20044;-63
2022/02/07 08:55:02;;;;;;;37.28;5.47;;;;;;;;;;5085360;28;20040;-63
2022/02/07 08:57:37;;;;;;;;;;;;;;;;;;5082929;28;20063;-63
2022/02/07 09:00:22;;;;;;;34.85;6.70;;;;;;;;;;5094204;28;19931;-63
2022/02/07 09:05:41;;;;;;;38.25;5.90;;;;;;;;;;5087929;28;20064;-62
2022/02/07 09:08:21;;;;;;;31.70;5.20;;;;;;;;;;5082422;28;20056;-63
2022/02/07 09:10:49;;;;;;;32.50;5.90;;;;;;;;;;5080980;28;20102;-63
2022/02/07 09:13:15;;;;;;;29.73;5.80;;;;;;;;;;5077505;28;20178;-63
2022/02/07 09:15:55;;;;;;;31.70;5.20;;;;;;;;;;5071642;28;20044;-63
2022/02/07 09:18:21;;;;;;;25.27;4.55;;;;;;;;;;5109653;28;20044;-63
2022/02/07 09:20:49;;;;;;;33.30;5.85;;;;;;;;;;5077893;28;20059;-62
2022/02/07 09:23:16;;;;;;;26.27;5.07;;;;;;;;;;5081175;28;20052;-63
2022/02/07 09:25:42;;;;;;;25.33;4.65;;;;;;;;;;5079170;28;20128;-63
2022/02/07 09:28:08;;;;;;;33.60;5.05;;;;;;;;;;5079476;28;20036;-62
2022/02/07 09:30:35;;;;;;;30.17;4.53;;;;;;;;;;5071422;28;20044;-63
2022/02/07 09:33:01;;;;;;;20.10;4.63;;;;;;;;;;5069310;28;20410;-63
2022/02/07 09:35:29;;;;;;;34.00;5.30;;;;;;;;;;5091795;28;20090;-62
2022/02/07 09:37:55;;;;;;;;;;;;;;;;;;5081313;28;20063;-62
2022/02/07 09:40:22;;;;;;;25.23;4.82;;;;;;;;;;5075275;28;19927;-63
2022/02/07 09:42:55;;;;;;;31.25;4.68;;;;;;;;;;5078680;28;20041;-62
2022/02/07 09:45:30;;;;;;;28.85;4.13;;;;;;;;;;5075711;28;20063;-62
2022/02/07 09:48:01;;;;;;;27.95;5.18;;;;;;;;;;5097089;28;20045;-63
2022/02/07 09:50:27;;;;;;;25.67;5.32;;;;;;;;;;5071495;28;20124;-62
2022/02/07 09:52:53;;;;;;;26.83;4.47;;;;;;;;;;5076263;28;20104;-62
2022/02/07 09:55:20;;;;;;;24.35;4.95;;;;;;;;;;5078566;28;20040;-62
2022/02/07 09:57:52;;;;;;;27.95;5.55;;;;;;;;;;5109729;27;20037;-62
2022/02/07 10:00:20;;;;;;;29.20;4.97;;;;;;;;;;5091596;28;20048;-62
2022/02/07 10:03:03;;;;;;;23.98;4.80;;;;;;;;;;5073302;28;20041;-62
2022/02/07 10:05:32;;;;;;;24.17;5.15;;;;;;;;;;5080695;28;20080;-63
2022/02/07 10:08:14;;;;;;;38.95;6.63;;;;;;;;;;5073399;28;20636;-62
2022/02/07 10:10:56;;;;;;;31.08;4.35;;;;;;;;;;5073866;28;20078;-63
2022/02/07 10:15:53;;;;;;;23.38;5.65;;;;;;;;;;5073649;28;20057;-63
2022/02/07 10:40:22;;;;;;;23.17;5.45;;;;;;;;;;5071568;28;20041;-63
2022/02/07 10:43:07;;;;;;;22.88;4.95;;;;;;;;;;5073045;28;20562;-63
2022/02/07 10:45:34;;;;;;;25.23;3.65;;;;;;;;;;5074025;28;20094;-63
2022/02/07 10:48:04;;;;;;;27.30;4.80;;;;;;;;;;5071151;28;20041;-63
2022/02/07 10:50:31;;;;;;;17.27;3.58;;;;;;;;;;5072952;28;20049;-63
2022/02/07 10:53:00;;;;;;;16.65;4.25;;;;;;;;;;5069437;28;20040;-63
2022/02/07 10:55:31;;;;;;;21.67;4.13;;;;;;;;;;5075858;28;20048;-63
2022/02/07 10:57:58;;;;;;;27.70;4.88;;;;;;;;;;5072812;28;20111;-63
2022/02/07 11:00:36;;;;;;;28.98;4.45;;;;;;;;;;5072673;28;20159;-63
2022/02/07 11:05:40;;;;;;;76.93;6.40;;;;;;;;;;5071879;28;20076;-62
2022/02/07 11:09:08;;;;;;;27.05;4.30;;;;;;;;;;5056585;28;20049;-62
2022/02/07 11:16:24;;;;;;;17.13;3.88;;;;;;;;;;5076856;28;20079;-63
2022/02/07 11:21:37;;;;;;;24.75;4.60;;;;;;;;;;5075784;28;20185;-63
2022/02/07 11:24:35;;;;;;;22.20;3.63;;;;;;;;;;5074582;28;20099;-63
2022/02/07 11:27:20;;;;;;;22.73;5.22;;;;;;;;;;5068409;28;20051;-63
2022/02/07 11:29:49;;;;;;;24.73;4.28;;;;;;;;;;5073736;28;20083;-62
2022/02/07 11:32:34;;;;;;;31.42;4.78;;;;;;;;;;5087920;28;20049;-63
2022/02/07 11:35:04;;;;;;;25.15;3.75;;;;;;;;;;5081944;28;20136;-62
2022/02/07 11:37:30;;;;;;;26.35;4.30;;;;;;;;;;5072007;28;20060;-68
2022/02/07 11:39:56;;;;;;;28.08;4.25;;;;;;;;;;5078867;28;20088;-68
2022/02/07 11:42:22;;;;;;;13.93;3.22;;;;;;;;;;5085595;28;20567;-69
2022/02/07 11:44:52;;;;;;;14.68;3.20;;;;;;;;;;5081432;28;20070;-65
2022/02/07 11:47:22;;;;;;;19.38;3.42;;;;;;;;;;5074374;28;20099;-66
2022/02/07 11:49:49;;;;;;;19.15;4.32;;;;;;;;;;5084662;28;20037;-68
2022/02/07 11:52:31;;;;;;;21.50;3.85;;;;;;;;;;5079652;28;20067;-66
2022/02/07 11:54:58;;;;;;;22.80;4.25;;;;;;;;;;5078324;28;20087;-67
2022/02/07 11:57:32;;;;;;;19.80;4.60;;;;;;;;;;5079591;28;20316;-67
2022/02/07 11:59:59;;;;;;;17.55;3.17;;;;;;;;;;5082909;28;20115;-65
2022/02/07 12:02:35;;;;;;;22.92;3.83;;;;;;;;;;5081589;28;20041;-65
2022/02/07 12:05:01;;;;;;;20.83;4.18;;;;;;;;;;5104410;28;20483;-65
2022/02/07 12:07:35;;;;;;;23.88;4.88;;;;;;;;;;5084396;28;20063;-73
2022/02/07 12:15:06;;;;;;;22.23;3.95;;;;;;;;;;5073597;28;20045;-66
2022/02/07 12:17:39;;;;;;;25.47;5.10;;;;;;;;;;5085360;28;20052;-66
2022/02/07 12:20:06;;;;;;;25.70;4.13;;;;;;;;;;5074714;28;20143;-66
2022/02/07 12:22:47;;;;;;;20.05;4.63;;;;;;;;;;5081518;28;20044;-65
2022/02/07 12:25:21;;;;;;;16.88;3.08;;;;;;;;;;5073625;28;20104;-64
2022/02/07 12:27:47;;;;;;;28.27;3.83;;;;;;;;;;5111409;28;20102;-66
2022/02/07 12:32:42;;;;;;;14.52;3.22;;;;;;;;;;5071937;28;20096;-66
2022/02/07 12:35:09;;;;;;;16.08;2.90;;;;;;;;;;5072755;28;20052;-67
2022/02/07 12:37:38;;;;;;;28.85;4.22;;;;;;;;;;5069166;28;20052;-68
2022/02/07 12:40:09;;;;;;;11.00;2.78;;;;;;;;;;5075142;28;20047;-74
2022/02/07 12:42:38;;;;;;;21.05;4.50;;;;;;;;;;5088951;28;20049;-68
2022/02/07 12:45:04;;;;;;;12.93;3.08;;;;;;;;;;5084261;28;20102;-69
2022/02/07 12:47:34;;;;;;;19.23;2.55;;;;;;;;;;5076841;28;20052;-65
2022/02/07 12:50:10;;;;;;;19.92;2.90;;;;;;;;;;5067002;28;20253;-65
2022/02/07 12:52:37;;;;;;;18.83;4.18;;;;;;;;;;5066161;28;20115;-72
2022/02/07 12:55:05;;;;;;;13.93;3.85;;;;;;;;;;5077998;28;20043;-70
2022/02/07 12:57:39;;;;;;;18.50;3.28;;;;;;;;;;5081502;28;20052;-68
2022/02/07 13:00:06;;;;;;;27.65;3.78;;;;;;;;;;5096260;28;20050;-67
2022/02/07 13:02:32;;;;;;;18.15;3.63;;;;;;;;;;5080853;28;20488;-71
2022/02/07 13:04:58;;;;;;;21.63;3.08;;;;;;;;;;5072223;28;20052;-67
2022/02/07 13:07:26;;;;;;;14.40;3.17;;;;;;;;;;5075547;28;20063;-72
2022/02/07 13:09:54;;;;;;;24.15;3.10;;;;;;;;;;5080445;28;20515;-74
2022/02/07 13:12:52;;;;;;;20.15;3.70;;;;;;;;;;5081772;28;20060;-71
2022/02/07 13:15:23;;;;;;;20.65;3.55;;;;;;;;;;5074143;28;20118;-78
2022/02/07 13:17:52;;;;;;;18.55;3.63;;;;;;;;;;5075000;28;20053;-65
2022/02/07 13:20:20;;;;;;;28.73;5.95;;;;;;;;;;5085849;28;20071;-65
2022/02/07 13:22:46;;;;;;;23.30;3.97;;;;;;;;;;5080663;28;20441;-64
2022/02/07 13:25:13;;;;;;;24.27;3.42;;;;;;;;;;5077643;28;20044;-67
2022/02/07 13:27:40;;;;;;;26.27;4.43;;;;;;;;;;5071030;28;20139;-69
2022/02/07 13:30:11;;;;;;;21.00;3.47;;;;;;;;;;5074108;28;20060;-70
2022/02/07 13:32:38;;;;;;;14.57;2.75;;;;;;;;;;5076126;28;20126;-71
2022/02/07 13:35:07;;;;;;;19.65;3.70;;;;;;;;;;5073741;28;20060;-71
2022/02/07 13:37:36;;;;;;;21.58;3.38;;;;;;;;;;5095869;28;20062;-72
2022/02/07 13:40:05;;;;;;;15.73;2.85;;;;;;;;;;5093622;28;20048;-72
2022/02/07 13:42:38;;;;;;;12.15;2.67;;;;;;;;;;5079342;28;20053;-67
2022/02/07 13:45:06;;;;;;;22.67;3.38;;;;;;;;;;5081032;28;20040;-67
2022/02/07 13:47:32;;;;;;;20.58;3.80;;;;;;;;;;5082138;28;20119;-67
2022/02/07 13:50:02;;;;;;;24.92;3.30;;;;;;;;;;5082222;28;20029;-71
2022/02/07 13:52:33;;;;;;;16.02;3.25;;;;;;;;;;5075619;28;20049;-70
2022/02/07 13:55:09;;;;;;;12.77;3.00;;;;;;;;;;5076461;28;20041;-68
2022/02/07 13:57:36;;;;;;;18.48;4.50;;;;;;;;;;5103769;28;20508;-67
2022/02/07 14:00:15;;;;;;;18.55;3.47;;;;;;;;;;5080565;28;20559;-68
2022/02/07 14:02:41;;;;;;;18.10;3.45;;;;;;;;;;5070928;28;20051;-68
2022/02/07 14:05:07;;;;;;;12.65;2.88;;;;;;;;;;5074240;28;20119;-79
2022/02/07 14:07:49;;;;;;;14.50;2.53;;;;;;;;;;5073598;28;20400;-66
2022/02/07 14:10:16;;;;;;;17.90;2.97;;;;;;;;;;5078448;28;20095;-66
2022/02/07 14:12:42;;;;;;;19.60;3.13;;;;;;;;;;5075841;28;20041;-67
2022/02/07 14:15:08;;;;;;;11.82;2.88;;;;;;;;;;5081986;28;20515;-66
2022/02/07 14:17:35;;;;;;;20.20;3.67;;;;;;;;;;5076168;28;20048;-65
2022/02/07 14:20:01;;;;;;;23.20;2.72;;;;;;;;;;5075746;28;20064;-64
2022/02/07 14:22:35;;;;;;;14.30;2.75;;;;;;;;;;5080263;28;20104;-67
2022/02/07 14:25:02;;;;;;;22.58;3.13;;;;;;;;;;5082085;28;20047;-65
2022/02/07 14:27:29;;;;;;;12.50;2.78;;;;;;;;;;5080355;28;20048;-69
2022/02/07 14:29:56;;;;;;;27.00;3.78;;;;;;;;;;5076250;28;20049;-68
2022/02/07 14:32:22;;;;;;;17.50;3.15;;;;;;;;;;5075873;28;20113;-77
2022/02/07 14:34:49;;;;;;;25.35;3.03;;;;;;;;;;5093720;28;20044;-74
2022/02/07 14:37:15;;;;;;;15.13;3.67;;;;;;;;;;5092030;28;20057;-75
2022/02/07 14:39:41;;;;;;;21.65;5.68;;;;;;;;;;5092857;28;20113;-69
2022/02/07 14:42:08;;;;;;;18.20;3.22;;;;;;;;;;5070692;28;20095;-65
2022/02/07 14:44:44;;;;;;;12.32;2.00;;;;;;;;;;5073842;28;20520;-66
2022/02/07 14:47:16;;;;;;;19.38;3.00;;;;;;;;;;5081533;28;20136;-69
2022/02/07 14:49:42;;;;;;;15.13;3.13;;;;;;;;;;5074524;28;20090;-68
2022/02/07 14:52:08;;;;;;;12.45;2.70;;;;;;;;;;5079874;28;20060;-68
2022/02/07 14:54:34;;;;;;;20.85;3.55;;;;;;;;;;5073415;28;20078;-69
2022/02/07 14:57:00;;;;;;;10.30;1.85;;;;;;;;;;5074895;28;20051;-69
2022/02/07 14:59:26;;;;;;;18.40;2.83;;;;;;;;;;5070333;28;20052;-68
2022/02/07 15:01:54;;;;;;;22.50;3.47;;;;;;;;;;5084355;28;20063;-68
2022/02/07 15:04:20;;;;;;;14.32;2.40;;;;;;;;;;5089022;28;20052;-63
2022/02/07 15:06:47;;;;;;;20.55;4.07;;;;;;;;;;5074137;28;20083;-63
2022/02/07 15:09:13;;;;;;;17.60;3.20;;;;;;;;;;5080783;28;20086;-63
2022/02/07 15:11:39;;;;;;;13.05;2.17;;;;;;;;;;5070539;28;20055;-63
2022/02/07 15:14:05;;;;;;;28.83;3.67;;;;;;;;;;5077434;28;20100;-61
2022/02/07 15:16:31;;;;;;;15.10;2.45;;;;;;;;;;5079181;28;20041;-63
2022/02/07 15:18:58;;;;;;;19.95;2.90;;;;;;;;;;5095297;28;20059;-70
2022/02/07 15:21:24;;;;;;;8.55;2.40;;;;;;;;;;5085033;28;20044;-69
2022/02/07 15:23:52;;;;;;;15.75;2.30;;;;;;;;;;5087762;28;20044;-68
2022/02/07 15:26:22;;;;;;;20.23;2.78;;;;;;;;;;5081258;28;21028;-69
2022/02/07 15:28:49;;;;;;;18.45;3.58;;;;;;;;;;5076672;28;20625;-68
2022/02/07 15:31:18;;;;;;;21.73;4.63;;;;;;;;;;5074086;28;20048;-67
2022/02/07 15:33:44;;;;;;;14.35;2.53;;;;;;;;;;5079831;28;20044;-68
2022/02/07 15:36:11;;;;;;;23.48;3.50;;;;;;;;;;5078631;28;20069;-67
2022/02/07 15:38:37;;;;;;;21.98;3.55;;;;;;;;;;5083195;28;20495;-78
2022/02/07 15:41:04;;;;;;;14.05;2.63;;;;;;;;;;5079075;28;20100;-75
2022/02/07 15:43:31;;;;;;;13.40;3.25;;;;;;;;;;5082656;28;20059;-77
2022/02/07 15:45:57;;;;;;;13.77;3.88;;;;;;;;;;5080719;28;20052;-75
2022/02/07 15:48:24;;;;;;;24.08;3.60;;;;;;;;;;5079148;28;20079;-76
2022/02/07 15:50:54;;;;;;;14.70;2.37;;;;;;;;;;5080433;28;20056;-77
2022/02/07 15:53:21;;;;;;;16.70;3.03;;;;;;;;;;5083683;28;20049;-65
2022/02/07 15:55:47;;;;;;;12.82;2.40;;;;;;;;;;5095306;28;20059;-68
2022/02/07 15:58:13;;;;;;;10.73;2.40;;;;;;;;;;5077035;28;20047;-72
2022/02/07 16:00:39;;;;;;;23.27;3.42;;;;;;;;;;5083186;28;20060;-71
2022/02/07 16:03:05;;;;;;;19.50;3.03;;;;;;;;;;5079219;28;20059;-68
2022/02/07 16:05:32;;;;;;;21.95;2.60;;;;;;;;;;5090255;28;20048;-69
2022/02/07 16:07:58;;;;;;;12.43;2.75;;;;;;;;;;5080176;28;20120;-67
2022/02/07 16:10:25;;;;;;;11.80;2.25;;;;;;;;;;5078232;28;20056;-68
2022/02/07 16:13:01;;;;;;;14.77;2.20;;;;;;;;;;5079879;28;20063;-67
2022/02/07 16:15:27;;;;;;;11.05;2.38;;;;;;;;;;5071006;28;20049;-66
2022/02/07 16:17:53;;;;;;;20.10;3.47;;;;;;;;;;5093278;28;20049;-66
2022/02/07 16:20:19;;;;;;;14.93;3.78;;;;;;;;;;5088144;28;20036;-66
2022/02/07 16:22:45;;;;;;;14.02;2.97;;;;;;;;;;5079526;28;20048;-65
2022/02/07 16:25:12;;;;;;;11.82;2.45;;;;;;;;;;5070785;28;20083;-66
2022/02/07 16:27:38;;;;;;;40.40;3.65;;;;;;;;;;5074361;28;20048;-65
2022/02/07 16:30:05;;;;;;;8.02;2.08;;;;;;;;;;5091399;28;20068;-66
2022/02/07 16:32:31;;;;;;;18.13;3.17;;;;;;;;;;5084067;28;20051;-66
2022/02/07 16:34:57;;;;;;;13.45;2.83;;;;;;;;;;5083420;28;20375;-66
2022/02/07 16:37:23;;;;;;;12.57;3.28;;;;;;;;;;5081563;28;20052;-65
2022/02/07 16:39:50;;;;;;;13.73;2.95;;;;;;;;;;5086411;28;20048;-65
2022/02/07 16:42:16;;;;;;;13.65;2.72;;;;;;;;;;5080389;28;20120;-66
2022/02/07 16:44:50;;;;;;;15.43;2.72;;;;;;;;;;5088277;28;20052;-65
2022/02/07 16:47:17;;;;;;;14.57;3.22;;;;;;;;;;5082052;28;20051;-66
2022/02/07 16:49:45;;;;;;;19.17;3.97;;;;;;;;;;5071012;28;20052;-66
2022/02/07 16:52:12;;;;;;;17.38;3.03;;;;;;;;;;5074299;28;20068;-66
2022/02/07 16:54:38;;;;;;;21.13;2.60;;;;;;;;;;5093127;28;20041;-67